^^
Datos históricos de la estación: Murcia-Puente Tocinos
Diario Informe para Enero 11, 2019 Unidades:  Métrico    Ingés   Ambas
Diario Semanal Mensual Anual
  Máxima: Mínima: Promedio:
Temperatura: 31.6 °C 20.8 °C 24.6 °C
Punto de rocio: 15.9 °C 10.1 °C 13.1 °C
Humedad: 65.1% 26.6% 50%
Velocidad viento: 27km/h 0km/h 10.5km/h
Racha viento: 45.1km/h - -
Viento- - SSE
Presión: 1020.2 hPa 1013.3 hPa -
Precipitación: 0.0 mm    
 
 
Tabla de datos para Enero 11, 2019
Hora Temperatura Punto de rocio Presión Viento Velocidad viento Racha viento Humedad Intensidad lluvia(por hora) Nubes
00:04 24.7 °C 13.6 °C 1013.4 hPa SO 5 km/h 11.3 km/h 50% 0.0 mm
00:09 24.7 °C 13.5 °C 1013.4 hPa SO 5.5 km/h 11.3 km/h 49.9% 0.0 mm
00:14 24.7 °C 13.3 °C 1013.4 hPa SO 6.9 km/h 11.1 km/h 49% 0.0 mm
00:19 24.7 °C 13.3 °C 1013.4 hPa SSO 6.8 km/h 11.3 km/h 49% 0.0 mm
00:24 24.7 °C 13.4 °C 1013.4 hPa Sur 6.5 km/h 11.3 km/h 49.3% 0.0 mm
00:29 24.7 °C 13.8 °C 1013.4 hPa ENE 5.2 km/h 7.4 km/h 50.7% 0.0 mm
00:34 24.5 °C 13.8 °C 1013.4 hPa ENE 2.9 km/h 8 km/h 51.1% 0.0 mm
00:39 24.3 °C 13.9 °C 1013.3 hPa ENE 2.9 km/h 5.8 km/h 52.2% 0.0 mm
00:44 24.1 °C 14.2 °C 1013.3 hPa ENE 2.9 km/h 7.4 km/h 53.7% 0.0 mm
00:49 23.8 °C 14.3 °C 1013.5 hPa NE 3 km/h 8 km/h 55% 0.0 mm
00:54 23.6 °C 14.3 °C 1013.5 hPa NE 3.2 km/h 6.4 km/h 56% 0.0 mm
00:59 23.3 °C 14.2 °C 1013.5 hPa ENE 3.2 km/h 8 km/h 56.7% 0.0 mm
01:04 23.2 °C 14.2 °C 1013.5 hPa ENE 3.2 km/h 8 km/h 57% 0.0 mm
01:09 23.1 °C 14.1 °C 1013.4 hPa ENE 2.2 km/h 4.8 km/h 57% 0.0 mm
01:14 23.1 °C 14.1 °C 1013.4 hPa Calm   3.7 km/h 57% 0.0 mm
01:19 23.1 °C 14.3 °C 1013.5 hPa Calm   3.2 km/h 57.8% 0.0 mm
01:24 23.1 °C 14.3 °C 1013.5 hPa Calm     57.6% 0.0 mm
01:29 23.1 °C 14.1 °C 1013.5 hPa Calm     57% 0.0 mm
01:34 23.1 °C 14.2 °C 1013.6 hPa Calm     57.7% 0.0 mm
01:39 23 °C 14.1 °C 1013.6 hPa Calm   7.4 km/h 57.5% 0.0 mm
01:44 23 °C 14 °C 1013.6 hPa Calm   8 km/h 57.1% 0.0 mm
01:49 22.9 °C 14.1 °C 1013.6 hPa SSE 0.7 km/h 6.4 km/h 57.7% 0.0 mm
01:54 22.8 °C 13.9 °C 1013.6 hPa Sur 2.2 km/h 8.7 km/h 57% 0.0 mm
01:59 22.7 °C 14 °C 1013.6 hPa SSE 3.8 km/h 12.2 km/h 57.6% 0.0 mm
02:04 22.7 °C 13.9 °C 1013.6 hPa Sur 5.8 km/h 13 km/h 58% 0.0 mm
02:09 22.5 °C 13.8 °C 1013.6 hPa SSO 6.3 km/h 13 km/h 58% 0.0 mm
02:14 22.4 °C 13.7 °C 1013.6 hPa SSO 7.6 km/h 13 km/h 58% 0.0 mm
02:19 22.4 °C 13.7 °C 1013.6 hPa SSO 7.8 km/h 13 km/h 58% 0.0 mm
02:24 22.4 °C 13.7 °C 1013.6 hPa SSO 8.4 km/h 12.9 km/h 58% 0.0 mm
02:29 22.4 °C 13.7 °C 1013.6 hPa SSO 8.4 km/h 11.9 km/h 58% 0.0 mm
02:34 22.5 °C 13.8 °C 1013.6 hPa SSO 8.4 km/h 11.3 km/h 58% 0.0 mm
02:39 22.6 °C 13.9 °C 1013.5 hPa SSO 7.8 km/h 10 km/h 58% 0.0 mm
02:44 22.6 °C 13.8 °C 1013.5 hPa SSO 6.5 km/h 10.3 km/h 57.5% 0.0 mm
02:49 22.6 °C 13.8 °C 1013.5 hPa SSO 6.6 km/h 11.3 km/h 57.8% 0.0 mm
02:54 22.6 °C 13.9 °C 1013.5 hPa SSO 6.9 km/h 11.9 km/h 58% 0.0 mm
02:59 22.6 °C 13.9 °C 1013.5 hPa SSO 7.2 km/h 13 km/h 58% 0.0 mm
03:04 22.6 °C 13.9 °C 1013.5 hPa SSO 7.6 km/h 12.9 km/h 58% 0.0 mm
03:09 22.6 °C 13.9 °C 1013.5 hPa SO 7.2 km/h 11.9 km/h 58% 0.0 mm
03:14 22.6 °C 13.9 °C 1013.5 hPa SO 6.5 km/h 13 km/h 58% 0.0 mm
03:19 22.6 °C 13.9 °C 1013.5 hPa SSO 7.1 km/h 13 km/h 58% 0.0 mm
03:24 22.6 °C 13.9 °C 1013.5 hPa SSO 8.4 km/h 14.8 km/h 58% 0.0 mm
03:29 22.6 °C 13.9 °C 1013.5 hPa SO 8.1 km/h 14.5 km/h 58% 0.0 mm
03:34 22.6 °C 13.9 °C 1013.6 hPa SO 7.6 km/h 13 km/h 58% 0.0 mm
03:39 22.5 °C 14 °C 1013.6 hPa OSO 7.6 km/h 12.9 km/h 58.6% 0.0 mm
03:44 22.5 °C 14.1 °C 1013.6 hPa OSO 7.6 km/h 11.1 km/h 59% 0.0 mm
03:49 22.4 °C 14 °C 1013.6 hPa OSO 6.7 km/h 11.3 km/h 59% 0.0 mm
03:54 22.4 °C 14 °C 1013.6 hPa OSO 5 km/h 8 km/h 59% 0.0 mm
03:59 22.3 °C 14 °C 1013.6 hPa OSO 4.2 km/h 8 km/h 59% 0.0 mm
04:04 22.3 °C 14.1 °C 1013.6 hPa OSO 3.2 km/h 6.4 km/h 59.9% 0.0 mm
04:09 22.3 °C 14.2 °C 1013.6 hPa OSO 2.2 km/h 3.7 km/h 60% 0.0 mm
04:14 22.2 °C 14 °C 1013.6 hPa Calm   4.7 km/h 60% 0.0 mm
04:19 22 °C 14.1 °C 1013.8 hPa Calm   5 km/h 60.7% 0.0 mm
04:24 21.8 °C 14.1 °C 1013.8 hPa Calm   5.6 km/h 61.3% 0.0 mm
04:29 21.6 °C 14.1 °C 1013.8 hPa NNO 0.7 km/h 5.6 km/h 62.3% 0.0 mm
04:34 21.4 °C 14.1 °C 1013.8 hPa NNO 2.2 km/h 4.8 km/h 63.2% 0.0 mm
04:39 21.2 °C 14.1 °C 1013.8 hPa NNO 1.5 km/h 3.2 km/h 64% 0.0 mm
04:44 21 °C 14.1 °C 1013.8 hPa Calm     64.5% 0.0 mm
04:49 20.9 °C 14.1 °C 1013.8 hPa Calm   5.6 km/h 65% 0.0 mm
04:54 20.9 °C 14.1 °C 1013.8 hPa Calm   4.8 km/h 65% 0.0 mm
04:59 20.8 °C 14.1 °C 1013.8 hPa Oeste 1 km/h 7.4 km/h 65.1% 0.0 mm
05:04 20.8 °C 14 °C 1013.9 hPa Oeste 2.2 km/h 8.4 km/h 65% 0.0 mm
05:09 20.8 °C 14 °C 1013.9 hPa SO 3 km/h 10 km/h 65.1% 0.0 mm
05:14 20.9 °C 13.7 °C 1013.9 hPa SSO 4.6 km/h 18 km/h 63.2% 0.0 mm
05:19 21.5 °C 13.5 °C 1013.9 hPa SO 6.3 km/h 19.3 km/h 60.2% 0.0 mm
05:24 21.9 °C 13.4 °C 1013.7 hPa SSO 10 km/h 16.7 km/h 58.4% 0.0 mm
05:29 22.2 °C 13.3 °C 1013.7 hPa SSO 10.3 km/h 16.1 km/h 57.1% 0.0 mm
05:34 22.2 °C 13.3 °C 1013.7 hPa SSO 11.1 km/h 14.5 km/h 57% 0.0 mm
05:39 22.2 °C 13.3 °C 1013.7 hPa SSO 10.6 km/h 14.5 km/h 57% 0.0 mm
05:44 22.2 °C 13.3 °C 1013.7 hPa SO 9.5 km/h 12.9 km/h 57% 0.0 mm
05:49 22.2 °C 13.1 °C 1013.8 hPa SO 8.5 km/h 11.3 km/h 56.5% 0.0 mm
05:54 22.3 °C 13.1 °C 1013.8 hPa SO 6.5 km/h 12.2 km/h 56% 0.0 mm
05:59 22.3 °C 13.1 °C 1013.8 hPa SO 6.9 km/h 13 km/h 56% 0.0 mm
06:04 22.3 °C 13.1 °C 1014.0 hPa SO 7.6 km/h 13 km/h 56% 0.0 mm
06:09 22.3 °C 12.9 °C 1014.0 hPa SSO 7.8 km/h 13 km/h 55.3% 0.0 mm
06:14 22.4 °C 12.9 °C 1014.0 hPa SSO 8.4 km/h 15.6 km/h 55% 0.0 mm
06:19 22.4 °C 12.7 °C 1014.2 hPa SSO 8.5 km/h 16.1 km/h 54.4% 0.0 mm
06:24 22.5 °C 12.8 °C 1014.2 hPa SSO 8.7 km/h 16.7 km/h 54% 0.0 mm
06:29 22.6 °C 12.7 °C 1014.2 hPa SSO 9 km/h 16.1 km/h 53.6% 0.0 mm
06:34 22.7 °C 12.6 °C 1014.4 hPa SSO 9.5 km/h 16.1 km/h 53% 0.0 mm
06:39 22.7 °C 12.6 °C 1014.4 hPa SSO 9.5 km/h 15.6 km/h 53% 0.0 mm
06:44 22.7 °C 12.5 °C 1014.4 hPa SSO 9.5 km/h 16.1 km/h 52.7% 0.0 mm
06:49 22.8 °C 12.4 °C 1014.6 hPa SSO 9.1 km/h 14.5 km/h 52% 0.0 mm
06:54 22.8 °C 12.5 °C 1014.6 hPa SO 8.4 km/h 11.3 km/h 52% 0.0 mm
06:59 22.8 °C 12.5 °C 1014.6 hPa OSO 6.9 km/h 11.1 km/h 52% 0.0 mm
07:04 22.8 °C 12.4 °C 1014.8 hPa SO 5 km/h 11.3 km/h 52% 0.0 mm
07:09 22.8 °C 12.6 °C 1014.8 hPa SO 5.6 km/h 14.8 km/h 52.7% 0.0 mm
07:14 22.7 °C 12.6 °C 1014.8 hPa SO 6.9 km/h 15.6 km/h 53% 0.0 mm
07:19 22.7 °C 12.4 °C 1015.0 hPa SO 8 km/h 16.7 km/h 52.4% 0.0 mm
07:24 22.7 °C 12.3 °C 1015.0 hPa SO 10.3 km/h 17.2 km/h 52% 0.0 mm
07:29 22.6 °C 12.2 °C 1015.0 hPa SO 10.6 km/h 17.7 km/h 52% 0.0 mm
07:34 22.6 °C 12.2 °C 1015.1 hPa SO 11.1 km/h 19.8 km/h 52% 0.0 mm
07:39 22.6 °C 12.2 °C 1015.1 hPa SO 10.7 km/h 19.3 km/h 52% 0.0 mm
07:44 22.6 °C 12.3 °C 1015.1 hPa SO 10 km/h 18.5 km/h 52.4% 0.0 mm
07:49 22.6 °C 12.6 °C 1015.3 hPa SO 10.1 km/h 19.3 km/h 53% 0.0 mm
07:54 22.6 °C 12.6 °C 1015.3 hPa SO 10.3 km/h 16.1 km/h 53% 0.0 mm
07:59 22.6 °C 12.5 °C 1015.3 hPa SSO 10.3 km/h 16.1 km/h 53% 0.0 mm
08:04 22.6 °C 12.6 °C 1015.5 hPa SO 10.3 km/h 16.7 km/h 53% 0.0 mm
08:09 22.7 °C 12.6 °C 1015.5 hPa SO 10.6 km/h 19 km/h 53% 0.0 mm
08:14 22.8 °C 12.6 °C 1015.5 hPa SO 11.1 km/h 19.3 km/h 52.8% 0.0 mm
08:19 22.9 °C 12.5 °C 1015.6 hPa SSO 10.3 km/h 16.7 km/h 52.2% 0.0 mm
08:24 23 °C 12.6 °C 1015.6 hPa SSO 8.7 km/h 16.1 km/h 52% 0.0 mm
08:29 23.1 °C 12.7 °C 1015.6 hPa SSO 9.2 km/h 16.1 km/h 52% 0.0 mm
08:34 23.2 °C 12.6 °C 1015.7 hPa SO 10.3 km/h 19 km/h 51.3% 0.0 mm
08:39 23.3 °C 12.6 °C 1015.7 hPa SSO 10.3 km/h 19.3 km/h 51% 0.0 mm
08:44 23.4 °C 12.7 °C 1015.7 hPa SO 10.3 km/h 17.2 km/h 51% 0.0 mm
08:49 23.6 °C 12.7 °C 1015.7 hPa SO 10 km/h 17.7 km/h 50.2% 0.0 mm
08:54 23.7 °C 12.7 °C 1015.7 hPa SO 9.5 km/h 18 km/h 50% 0.0 mm
08:59 23.8 °C 12.7 °C 1015.7 hPa SO 9.8 km/h 18 km/h 50% 0.0 mm
09:04 23.9 °C 12.7 °C 1015.9 hPa OSO 10.3 km/h 19.3 km/h 49.5% 0.0 mm
09:09 24 °C 12.6 °C 1015.9 hPa OSO 10.8 km/h 25.9 km/h 49% 0.0 mm
09:14 24.1 °C 12.7 °C 1015.9 hPa OSO 11.9 km/h 25.7 km/h 49% 0.0 mm
09:19 24.1 °C 12.7 °C 1015.9 hPa OSO 12.6 km/h 29.6 km/h 49% 0.0 mm
09:24 24.1 °C 12.8 °C 1015.9 hPa OSO 14 km/h 29 km/h 49.2% 0.0 mm
09:29 24.2 °C 12.8 °C 1015.9 hPa OSO 13.9 km/h 26.2 km/h 49.1% 0.0 mm
09:34 24.2 °C 12.8 °C 1016.0 hPa Oeste 13.7 km/h 25.9 km/h 49% 0.0 mm
09:39 24.3 °C 13.1 °C 1016.0 hPa OSO 13.7 km/h 22.5 km/h 49.5% 0.0 mm
09:44 24.4 °C 13 °C 1016.0 hPa OSO 13.7 km/h 27.8 km/h 49% 0.0 mm
09:49 24.5 °C 13.1 °C 1016.0 hPa OSO 14 km/h 28.2 km/h 49% 0.0 mm
09:54 24.7 °C 13.2 °C 1016.0 hPa OSO 14.8 km/h 27.4 km/h 48.9% 0.0 mm
09:59 24.8 °C 13.1 °C 1016.0 hPa OSO 14.8 km/h 22.5 km/h 48% 0.0 mm
10:04 25.1 °C 13 °C 1016.1 hPa OSO 14.8 km/h 26.2 km/h 47% 0.0 mm
10:09 25.2 °C 12.9 °C 1016.1 hPa OSO 13.8 km/h 25.9 km/h 46.3% 0.0 mm
10:14 25.3 °C 12.8 °C 1016.1 hPa Oeste 11.9 km/h 25.7 km/h 46% 0.0 mm
10:19 25.3 °C 12.7 °C 1016.1 hPa OSO 12.6 km/h 25.9 km/h 45.6% 0.0 mm
10:24 25.3 °C 12.7 °C 1016.0 hPa OSO 14 km/h 25.9 km/h 45.7% 0.0 mm
10:29 25.5 °C 12.8 °C 1016.0 hPa OSO 14 km/h 25.7 km/h 45.2% 0.0 mm
10:34 25.6 °C 12.8 °C 1016.1 hPa OSO 14 km/h 24.5 km/h 45% 0.0 mm
10:39 25.7 °C 12.7 °C 1016.1 hPa OSO 14 km/h 24.1 km/h 44.3% 0.0 mm
10:44 25.9 °C 12.7 °C 1016.1 hPa Oeste 14 km/h 24.1 km/h 44% 0.0 mm
10:49 26.2 °C 12.6 °C 1016.1 hPa Oeste 13.7 km/h 24.1 km/h 43% 0.0 mm
10:54 26.3 °C 12.7 °C 1016.1 hPa OSO 13 km/h 24.1 km/h 43% 0.0 mm
10:59 26.4 °C 12.5 °C 1016.1 hPa Oeste 12.7 km/h 24.5 km/h 42.2% 0.0 mm
11:04 26.4 °C 12.4 °C 1016.1 hPa Oeste 12.2 km/h 28.2 km/h 42% 0.0 mm
11:09 26.4 °C 12.4 °C 1016.1 hPa Oeste 13.5 km/h 27.8 km/h 41.9% 0.0 mm
11:14 26.6 °C 12.6 °C 1016.1 hPa Oeste 16.1 km/h 27.4 km/h 41.9% 0.0 mm
11:19 26.8 °C 12.4 °C 1016.1 hPa OSO 15.4 km/h 25.9 km/h 41% 0.0 mm
11:24 26.9 °C 12.5 °C 1016.0 hPa Oeste 14 km/h 24.1 km/h 41% 0.0 mm
11:29 27.1 °C 12.5 °C 1016.0 hPa OSO 13.9 km/h 24.1 km/h 40.6% 0.0 mm
11:34 27.2 °C 12.7 °C 1016.0 hPa Oeste 13.7 km/h 24.1 km/h 40.7% 0.0 mm
11:39 27.2 °C 12.5 °C 1015.9 hPa OSO 13.7 km/h 22.5 km/h 40.1% 0.0 mm
11:44 27.3 °C 12.6 °C 1015.9 hPa Oeste 13.7 km/h 22.5 km/h 40.2% 0.0 mm
11:49 27.4 °C 12.7 °C 1015.9 hPa OSO 13.2 km/h 27.8 km/h 40.2% 0.0 mm
11:54 27.6 °C 12.8 °C 1015.9 hPa OSO 12.2 km/h 27.8 km/h 40% 0.0 mm
11:59 27.7 °C 12.8 °C 1015.9 hPa OSO 12.8 km/h 25.7 km/h 40% 0.0 mm
12:04 28 °C 12.9 °C 1015.9 hPa OSO 13.7 km/h 24.1 km/h 39.4% 0.0 mm
12:09 28.2 °C 12.9 °C 1015.7 hPa OSO 12.6 km/h 20.9 km/h 39% 0.0 mm
12:14 28.2 °C 12.7 °C 1015.7 hPa OSO 10.3 km/h 27 km/h 38.5% 0.0 mm
12:19 28.3 °C 12.6 °C 1015.7 hPa Oeste 10.9 km/h 27.4 km/h 37.9% 0.0 mm
12:24 28.3 °C 12.4 °C 1015.6 hPa OSO 12.2 km/h 24.5 km/h 37.6% 0.0 mm
12:29 28.3 °C 12.2 °C 1015.6 hPa OSO 12.2 km/h 24.1 km/h 37% 0.0 mm
12:34 28.4 °C 12.4 °C 1015.6 hPa OSO 12.2 km/h 20.9 km/h 37.4% 0.0 mm
12:39 28.7 °C 12.6 °C 1015.4 hPa Oeste 11.9 km/h 20.9 km/h 37.3% 0.0 mm
12:44 28.8 °C 12.5 °C 1015.4 hPa OSO 11.1 km/h 19.3 km/h 36.6% 0.0 mm
12:49 29.1 °C 12.1 °C 1015.4 hPa OSO 9.9 km/h 22.5 km/h 35.1% 0.0 mm
12:54 29.1 °C 11.8 °C 1015.2 hPa OSO 7.6 km/h 22.5 km/h 34.5% 0.0 mm
12:59 29.2 °C 11.2 °C 1015.2 hPa ONO 9.1 km/h 24.1 km/h 32.8% 0.0 mm
13:04 29.3 °C 10.9 °C 1015.2 hPa ONO 11.1 km/h 24.1 km/h 32% 0.0 mm
13:09 29.4 °C 11 °C 1015.0 hPa ONO 10.6 km/h 24.1 km/h 32.1% 0.0 mm
13:14 29.6 °C 11 °C 1015.0 hPa ONO 9.5 km/h 19.3 km/h 31.7% 0.0 mm
13:19 29.7 °C 11 °C 1015.0 hPa Oeste 9.8 km/h 18.5 km/h 31.5% 0.0 mm
13:24 29.9 °C 10.8 °C 1015.0 hPa ONO 10.3 km/h 20.1 km/h 30.7% 0.0 mm
13:29 30.1 °C 10.9 °C 1015.0 hPa ONO 10.6 km/h 22.2 km/h 30.5% 0.0 mm
13:34 30.1 °C 10.5 °C 1015.0 hPa Oeste 11.1 km/h 22.5 km/h 29.8% 0.0 mm
13:39 30.2 °C 10.9 °C 1014.9 hPa Oeste 11.4 km/h 24.1 km/h 30.4% 0.0 mm
13:44 30.2 °C 10.7 °C 1014.9 hPa Oeste 11.9 km/h 24.1 km/h 30% 0.0 mm
13:49 30.2 °C 11.1 °C 1014.9 hPa Oeste 11.7 km/h 19.3 km/h 30.8% 0.0 mm
13:54 30.3 °C 11 °C 1014.8 hPa OSO 11.1 km/h 19.3 km/h 30.3% 0.0 mm
13:59 30.4 °C 10.6 °C 1014.8 hPa ONO 9.9 km/h 14.5 km/h 29.4% 0.0 mm
14:04 30.7 °C 10.5 °C 1014.8 hPa ONO 8.4 km/h 14.5 km/h 28.7% 0.0 mm
14:09 30.9 °C 10.3 °C 1014.8 hPa Oeste 7.9 km/h 16.7 km/h 28% 0.0 mm
14:14 31.1 °C 10.7 °C 1014.8 hPa ONO 6.9 km/h 21.7 km/h 28.6% 0.0 mm
14:19 31.1 °C 10.8 °C 1014.8 hPa ONO 7.5 km/h 22.5 km/h 28.8% 0.0 mm
14:24 31.1 °C 10.5 °C 1014.7 hPa Oeste 8.7 km/h 19.3 km/h 28.2% 0.0 mm
14:29 31.2 °C 10.5 °C 1014.7 hPa OSO 9 km/h 20.4 km/h 27.9% 0.0 mm
14:34 31.2 °C 10.5 °C 1014.7 hPa OSO 9.5 km/h 20.9 km/h 28% 0.0 mm
14:39 31.3 °C 10.6 °C 1014.7 hPa ONO 9.2 km/h 20.1 km/h 28% 0.0 mm
14:44 31.3 °C 10.6 °C 1014.7 hPa Oeste 8.7 km/h 20.9 km/h 28% 0.0 mm
14:49 31.4 °C 10.4 °C 1014.7 hPa Oeste 9.5 km/h 20.9 km/h 27.5% 0.0 mm
14:54 31.6 °C 10.3 °C 1014.7 hPa SO 11.1 km/h 16.1 km/h 27% 0.0 mm
14:59 31.6 °C 10.3 °C 1014.7 hPa SSO 9.9 km/h 18 km/h 27% 0.0 mm
15:04 31.6 °C 10.1 °C 1014.7 hPa Oeste 8.4 km/h 19.3 km/h 26.6% 0.0 mm
15:09 31.5 °C 12.6 °C 1014.5 hPa ONO 10.5 km/h 43.1 km/h 31.7% 0.0 mm
15:14 30.6 °C 13.9 °C 1014.5 hPa NE 14.8 km/h 44.4 km/h 36.1% 0.0 mm
15:19 30.3 °C 14.4 °C 1014.6 hPa NE 17.8 km/h 45.1 km/h 38.1% 0.0 mm
15:24 30.3 °C 14 °C 1014.6 hPa NE 24.5 km/h 35.9 km/h 37% 0.0 mm
15:29 30.2 °C 14.2 °C 1014.6 hPa ENE 22.6 km/h 35.4 km/h 37.7% 0.0 mm
15:34 30.2 °C 14.1 °C 1014.7 hPa NE 18.4 km/h 34.3 km/h 37.7% 0.0 mm
15:39 30.1 °C 14.4 °C 1014.7 hPa NE 18.8 km/h 33.8 km/h 38.5% 0.0 mm
15:44 29.8 °C 14.4 °C 1014.7 hPa NE 19.8 km/h 42.3 km/h 39% 0.0 mm
15:49 29.1 °C 14.5 °C 1014.9 hPa NE 21.4 km/h 42.6 km/h 41% 0.0 mm
15:54 28.8 °C 14.6 °C 1014.9 hPa NE 25.1 km/h 41.8 km/h 42% 0.0 mm
15:59 28.7 °C 14.5 °C 1014.9 hPa NE 23.8 km/h 40.2 km/h 42% 0.0 mm
16:04 28.7 °C 14.5 °C 1015.0 hPa NE 22.1 km/h 37 km/h 42.2% 0.0 mm
16:09 28.4 °C 14.6 °C 1015.0 hPa NE 22 km/h 37 km/h 43% 0.0 mm
16:14 28.3 °C 15.2 °C 1015.0 hPa NE 21.7 km/h 35.9 km/h 44.8% 0.0 mm
16:19 28 °C 15.3 °C 1015.1 hPa NE 21.8 km/h 35.4 km/h 46% 0.0 mm
16:24 27.9 °C 15.2 °C 1015.1 hPa NE 22.1 km/h 37 km/h 45.9% 0.0 mm
16:29 27.8 °C 15.4 °C 1015.1 hPa NE 21.7 km/h 37 km/h 46.5% 0.0 mm
16:34 27.5 °C 15.6 °C 1015.3 hPa NE 20.9 km/h 37.8 km/h 48.3% 0.0 mm
16:39 27.1 °C 15.6 °C 1015.3 hPa NE 22.1 km/h 40.7 km/h 49.6% 0.0 mm
16:44 26.7 °C 15.5 °C 1015.3 hPa ENE 24.5 km/h 40.2 km/h 50% 0.0 mm
16:49 26.5 °C 15.5 °C 1015.4 hPa NE 25 km/h 41.2 km/h 51% 0.0 mm
16:54 26.3 °C 15.5 °C 1015.4 hPa NE 26.2 km/h 42.6 km/h 51.4% 0.0 mm
16:59 26.2 °C 15.8 °C 1015.4 hPa NE 26.6 km/h 41.8 km/h 52.6% 0.0 mm
17:04 26.4 °C 15.9 °C 1015.4 hPa NE 27 km/h 38.9 km/h 52.4% 0.0 mm
17:09 26.3 °C 15.9 °C 1015.4 hPa NE 25.9 km/h 41.2 km/h 53% 0.0 mm
17:14 26 °C 15.9 °C 1015.4 hPa NE 23.3 km/h 41.8 km/h 53.8% 0.0 mm
17:19 26 °C 15.8 °C 1015.5 hPa NE 23.3 km/h 38.9 km/h 53.7% 0.0 mm
17:24 25.8 °C 15.8 °C 1015.5 hPa NE 23.3 km/h 39.6 km/h 54% 0.0 mm
17:29 25.5 °C 15.7 °C 1015.5 hPa NE 24 km/h 40.2 km/h 54.7% 0.0 mm
17:34 25.3 °C 15.6 °C 1015.8 hPa NE 25.6 km/h 42 km/h 55% 0.0 mm
17:39 25.3 °C 15.6 °C 1015.8 hPa NE 25.4 km/h 41.8 km/h 55% 0.0 mm
17:44 25.4 °C 15.4 °C 1015.8 hPa NE 25.1 km/h 37 km/h 54.1% 0.0 mm
17:49 25.2 °C 15.2 °C 1016.1 hPa NE 24.6 km/h 42.6 km/h 53.8% 0.0 mm
17:54 25 °C 15.1 °C 1016.1 hPa NE 23.3 km/h 41.8 km/h 54.1% 0.0 mm
17:59 25.1 °C 15.1 °C 1016.1 hPa ENE 21.8 km/h 35.2 km/h 54% 0.0 mm
18:04 25.2 °C 15 °C 1016.2 hPa NE 19.8 km/h 37 km/h 53.4% 0.0 mm
18:09 25.1 °C 14.8 °C 1016.2 hPa NE 19.3 km/h 37 km/h 53% 0.0 mm
18:14 24.9 °C 14.7 °C 1016.2 hPa NE 18.4 km/h 37 km/h 53.1% 0.0 mm
18:19 24.9 °C 14.7 °C 1016.4 hPa NE 18.4 km/h 35.2 km/h 53.4% 0.0 mm
18:24 24.8 °C 14.5 °C 1016.4 hPa NE 18.4 km/h 35.4 km/h 53% 0.0 mm
18:29 24.7 °C 14.5 °C 1016.4 hPa NE 19.1 km/h 30.6 km/h 53% 0.0 mm
18:34 24.7 °C 14.6 °C 1016.7 hPa ENE 20.9 km/h 30.6 km/h 53.6% 0.0 mm
18:39 24.7 °C 14.3 °C 1016.7 hPa ENE 19.2 km/h 29 km/h 52.3% 0.0 mm
18:44 24.7 °C 14.3 °C 1016.7 hPa NE 15.6 km/h 27.8 km/h 52.5% 0.0 mm
18:49 24.4 °C 13.9 °C 1016.9 hPa ENE 16.1 km/h 37 km/h 52% 0.0 mm
18:54 24.2 °C 13.8 °C 1016.9 hPa ENE 17.2 km/h 37 km/h 52% 0.0 mm
18:59 24.2 °C 13.6 °C 1016.9 hPa NE 16.6 km/h 29.6 km/h 51.6% 0.0 mm
19:04 24.2 °C 13.5 °C 1016.9 hPa Este 15.6 km/h 29 km/h 51% 0.0 mm
19:09 24.2 °C 13.4 °C 1016.9 hPa ENE 15.3 km/h 29 km/h 50.6% 0.0 mm
19:14 24.2 °C 13.1 °C 1016.9 hPa NE 14.8 km/h 31.5 km/h 49.9% 0.0 mm
19:19 24.1 °C 13 °C 1017.0 hPa NE 14.8 km/h 32.2 km/h 50% 0.0 mm
19:24 24.1 °C 13 °C 1017.0 hPa NE 14.8 km/h 25.9 km/h 50.1% 0.0 mm
19:29 24.2 °C 13.1 °C 1017.0 hPa NE 13.6 km/h 24.1 km/h 50% 0.0 mm
19:34 24.2 °C 12.8 °C 1017.2 hPa NE 11.1 km/h 20.9 km/h 49% 0.0 mm
19:39 24.1 °C 12.7 °C 1017.2 hPa ENE 11.7 km/h 24.1 km/h 49.1% 0.0 mm
19:44 23.9 °C 12.8 °C 1017.2 hPa ENE 13 km/h 24.1 km/h 49.8% 0.0 mm
19:49 23.8 °C 12.6 °C 1017.2 hPa Este 13.2 km/h 25.9 km/h 49.2% 0.0 mm
19:54 23.7 °C 12.4 °C 1017.2 hPa Este 13.7 km/h 25.7 km/h 49.1% 0.0 mm
19:59 23.7 °C 12.5 °C 1017.2 hPa Este 14.1 km/h 24.1 km/h 49.6% 0.0 mm
20:04 23.6 °C 12.5 °C 1017.3 hPa Este 14.8 km/h 24.1 km/h 49.5% 0.0 mm
20:09 23.6 °C 12.4 °C 1017.3 hPa ENE 14 km/h 24.1 km/h 49.3% 0.0 mm
20:14 23.6 °C 12.4 °C 1017.3 hPa NE 12.2 km/h 22 km/h 49.4% 0.0 mm
20:19 23.6 °C 12.2 °C 1017.3 hPa ENE 11.4 km/h 24.1 km/h 49% 0.0 mm
20:24 23.4 °C 12.3 °C 1017.3 hPa Este 9.5 km/h 24.1 km/h 49.7% 0.0 mm
20:29 23.3 °C 12.3 °C 1017.3 hPa ENE 10 km/h 20.4 km/h 50% 0.0 mm
20:34 23.2 °C 12.3 °C 1017.6 hPa NE 11.1 km/h 20.9 km/h 50.1% 0.0 mm
20:39 23.2 °C 12.4 °C 1017.6 hPa ENE 10.6 km/h 22.2 km/h 50.7% 0.0 mm
20:44 23.1 °C 12.4 °C 1017.6 hPa NE 9.5 km/h 22.5 km/h 51% 0.0 mm
20:49 23.1 °C 12.4 °C 1017.8 hPa NE 8.9 km/h 14.8 km/h 51% 0.0 mm
20:54 23 °C 12.4 °C 1017.8 hPa NE 7.6 km/h 14.5 km/h 51% 0.0 mm
20:59 22.9 °C 12.3 °C 1017.8 hPa ENE 7.3 km/h 13 km/h 51.4% 0.0 mm
21:04 22.8 °C 12.4 °C 1018.2 hPa ENE 6.9 km/h 13.7 km/h 52% 0.0 mm
21:09 22.7 °C 12.3 °C 1018.2 hPa NE 7.4 km/h 14.8 km/h 52% 0.0 mm
21:14 22.6 °C 12.2 °C 1018.2 hPa ENE 8.4 km/h 14.5 km/h 52.1% 0.0 mm
21:19 22.5 °C 12.4 °C 1018.4 hPa ENE 7.9 km/h 11.9 km/h 52.9% 0.0 mm
21:24 22.4 °C 12.4 °C 1018.4 hPa NE 6.9 km/h 11.3 km/h 53% 0.0 mm
21:29 22.4 °C 12.4 °C 1018.4 hPa NE 6.6 km/h 11.3 km/h 53.4% 0.0 mm
21:34 22.3 °C 12.6 °C 1018.7 hPa ENE 5.8 km/h 11.3 km/h 54% 0.0 mm
21:39 22.2 °C 12.5 °C 1018.7 hPa ENE 6.1 km/h 11.3 km/h 54% 0.0 mm
21:44 22.2 °C 12.4 °C 1018.7 hPa ENE 6.9 km/h 11.3 km/h 54% 0.0 mm
21:49 22.1 °C 12.4 °C 1018.9 hPa ENE 6.3 km/h 9.7 km/h 54.2% 0.0 mm
21:54 22.1 °C 12.5 °C 1018.9 hPa NE 4.7 km/h 9.7 km/h 54.7% 0.0 mm
21:59 21.9 °C 12.4 °C 1018.9 hPa NE 5.4 km/h 13 km/h 54.9% 0.0 mm
22:04 21.8 °C 12.4 °C 1019.1 hPa ENE 6.5 km/h 12.9 km/h 55% 0.0 mm
22:09 21.8 °C 12.3 °C 1019.1 hPa ENE 6.5 km/h 12.9 km/h 55% 0.0 mm
22:14 21.7 °C 12.3 °C 1019.1 hPa ENE 6.5 km/h 11.3 km/h 55% 0.0 mm
22:19 21.7 °C 12.3 °C 1019.4 hPa NE 6 km/h 9.7 km/h 55% 0.0 mm
22:24 21.6 °C 12.3 °C 1019.4 hPa NE 5 km/h 11.1 km/h 55.3% 0.0 mm
22:29 21.6 °C 12.4 °C 1019.4 hPa NE 5.5 km/h 11.3 km/h 55.9% 0.0 mm
22:34 21.5 °C 12.3 °C 1019.7 hPa NE 6.5 km/h 13 km/h 56% 0.0 mm
22:39 21.4 °C 12.3 °C 1019.7 hPa NE 6.8 km/h 12.9 km/h 56.2% 0.0 mm
22:44 21.2 °C 12.4 °C 1019.7 hPa NE 7.6 km/h 11.9 km/h 57% 0.0 mm
22:49 21.1 °C 12.4 °C 1019.8 hPa NE 7.4 km/h 11.3 km/h 57.6% 0.0 mm
22:54 21.1 °C 12.5 °C 1019.8 hPa NE 6.9 km/h 11.1 km/h 58% 0.0 mm
22:59 21 °C 12.4 °C 1019.8 hPa NE 6.7 km/h 11.3 km/h 58% 0.0 mm
23:04 21 °C 12.6 °C 1020.1 hPa NNE 6.5 km/h 9.7 km/h 58.7% 0.0 mm
23:09 21 °C 12.6 °C 1020.1 hPa NE 5.8 km/h 8.4 km/h 59% 0.0 mm
23:14 20.9 °C 12.6 °C 1020.1 hPa NE 4.6 km/h 8 km/h 59% 0.0 mm
23:19 21 °C 12.7 °C 1020.2 hPa NE 3.9 km/h 4.8 km/h 59% 0.0 mm
23:24 21 °C 12.7 °C 1020.2 hPa NE 2.2 km/h 4.7 km/h 59% 0.0 mm
23:29 21.1 °C 12.8 °C 1020.2 hPa NNE 2.2 km/h 5.8 km/h 59% 0.0 mm
23:34 21.1 °C 12.8 °C 1020.2 hPa NNO 2.2 km/h 6.4 km/h 59% 0.0 mm
23:39 21 °C 12.7 °C 1020.2 hPa NNO 2.4 km/h 6.4 km/h 59% 0.0 mm
23:44 20.9 °C 12.6 °C 1020.2 hPa NNO 2.9 km/h 4.8 km/h 59% 0.0 mm
23:49 20.9 °C 12.6 °C 1020.2 hPa NNO 2 km/h 6.9 km/h 59% 0.0 mm
23:54 20.9 °C 12.5 °C 1020.2 hPa Calm   10 km/h 58.8% 0.0 mm
23:59 20.8 °C 12.4 °C 1020.2 hPa North 1.4 km/h 9.7 km/h 58.6% 0.0 mm
Murcia-Puente Tocinos, Espa?a
Compliments of Weather Underground - 3.25 mb

La estación de MeteoMurcia.com, publica sus datos en los siguientes proyectos:

Weather Underground PWS IMURCIAP2 Meteoclimatic www.awekas.at

W3Counter
Web Analytics